Time;durP1;ratioP1;P1;durP2;ratioP2;P2;SDS_P1;SDS_P2;PMS_P1;PMS_P2;Temp;Humidity;BMP_temperature;BMP_pressure;BME280_temperature;BME280_humidity;BME280_pressure;Samples;Min_cycle;Max_cycle;Signal;HPM_P1;HPM_P2
2022/07/03 00:02:06;;;;;;;;;;;16.20;99.90;;;;;;4944668;29;19923;-73
2022/07/03 00:04:38;;;;;;;;;;;16.10;99.90;;;;;;4921615;29;20018;-73
2022/07/03 00:07:09;;;;;;;;;;;16.10;99.90;;;;;;4936351;29;20417;-72
2022/07/03 00:09:41;;;;;;;;;;;16.10;99.90;;;;;;4938714;28;19933;-73
2022/07/03 00:12:13;;;;;;;;;;;16.10;99.90;;;;;;4944297;28;19922;-73
2022/07/03 00:14:44;;;;;;;;;;;16.10;99.90;;;;;;4939665;28;19930;-73
2022/07/03 00:17:16;;;;;;;;;;;16.10;99.90;;;;;;4938871;29;19923;-73
2022/07/03 00:19:47;;;;;;;;;;;16.00;99.90;;;;;;4947830;29;19930;-72
2022/07/03 00:22:19;;;;;;;;;;;15.90;99.90;;;;;;4954679;28;19923;-73
2022/07/03 00:24:52;;;;;;;;;;;15.90;99.90;;;;;;4940180;29;19923;-73
2022/07/03 00:27:24;;;;;;;;;;;15.90;99.90;;;;;;4949023;28;19927;-73
2022/07/03 00:29:57;;;;;;;;;;;15.90;99.90;;;;;;4932178;29;20017;-73
2022/07/03 00:32:29;;;;;;;;;;;15.90;99.90;;;;;;4935656;29;19943;-73
2022/07/03 00:35:01;;;;;;;;;;;15.90;99.90;;;;;;4931903;28;19926;-73
2022/07/03 00:37:32;;;;;;;;;;;15.90;99.90;;;;;;4930137;29;19965;-73
2022/07/03 00:40:04;;;;;;;;;;;15.80;99.90;;;;;;4941445;29;19934;-73
2022/07/03 00:42:37;;;;;;;;;;;15.80;99.90;;;;;;4952417;29;19922;-73
2022/07/03 00:45:10;;;;;;;;;;;15.80;99.90;;;;;;4932613;28;20272;-73
2022/07/03 00:47:42;;;;;;;;;;;15.70;99.90;;;;;;4942396;28;19973;-73
2022/07/03 00:50:14;;;;;;;;;;;15.70;99.90;;;;;;4943458;28;19934;-73
2022/07/03 00:52:47;;;;;;;;;;;15.60;99.90;;;;;;4952208;29;20029;-73
2022/07/03 00:55:20;;;;;;;;;;;15.60;99.90;;;;;;4925354;29;20017;-73
2022/07/03 00:57:53;;;;;;;;;;;15.60;99.90;;;;;;4943241;29;19961;-73
2022/07/03 01:00:25;;;;;;;;;;;15.60;99.90;;;;;;4951028;29;19926;-73
2022/07/03 01:03:01;;;;;;;;;;;15.50;99.90;;;;;;4937376;29;19937;-73
2022/07/03 01:05:42;;;;;;;;;;;15.50;99.90;;;;;;4946170;28;19926;-73
2022/07/03 01:08:30;;;;;;;;;;;15.40;99.90;;;;;;4945681;29;19922;-73
2022/07/03 01:11:24;;;;;;;;;;;15.40;99.90;;;;;;4930665;29;19934;-73
2022/07/03 01:14:11;;;;;;;;;;;15.30;99.90;;;;;;4955844;28;19930;-74
2022/07/03 01:17:00;;;;;;;;;;;15.30;99.90;;;;;;4937933;29;20507;-73
2022/07/03 01:19:53;;;;;;;;;;;15.40;99.90;;;;;;4942372;29;19923;-73
2022/07/03 01:22:30;;;;;;;;;;;15.40;99.90;;;;;;4937673;29;19923;-73
2022/07/03 01:25:10;;;;;;;;;;;15.40;99.90;;;;;;4942473;28;20522;-73
2022/07/03 01:28:00;;;;;;;;;;;15.40;99.90;;;;;;4941234;29;19926;-73
2022/07/03 01:30:34;;;;;;;;;;;15.40;99.90;;;;;;4959002;28;19926;-73
2022/07/03 01:33:01;;;;;;;;;;;15.30;99.90;;;;;;4945171;29;19969;-73
2022/07/03 01:35:34;;;;;;;;;;;15.20;99.90;;;;;;4935412;29;19930;-73
2022/07/03 01:38:10;;;;;;;;;;;15.20;99.90;;;;;;4935726;29;19926;-73
2022/07/03 01:40:42;;;;;;;;;;;15.20;99.90;;;;;;4931132;29;19926;-73
2022/07/03 01:43:14;;;;;;;;;;;15.20;99.90;;;;;;4949573;28;19928;-73
2022/07/03 01:45:47;;;;;;;;;;;15.20;99.90;;;;;;4949102;28;20427;-73
2022/07/03 01:48:14;;;;;;;;;;;15.30;99.90;;;;;;4944813;29;19923;-73
2022/07/03 01:50:46;;;;;;;;;;;15.20;99.90;;;;;;4942887;29;20379;-73
2022/07/03 01:53:19;;;;;;;;;;;15.10;99.90;;;;;;4938226;29;19927;-73
2022/07/03 01:55:54;;;;;;;;;;;15.00;99.90;;;;;;4937775;28;19922;-73
2022/07/03 01:58:26;;;;;;;;;;;15.00;99.90;;;;;;4939356;29;19949;-73
2022/07/03 02:01:06;;;;;;;;;;;14.90;99.90;;;;;;4935088;28;19923;-73
2022/07/03 02:03:41;;;;;;;;;;;14.80;99.90;;;;;;4954285;28;20446;-73
2022/07/03 02:06:11;;;;;;;;;;;14.90;99.90;;;;;;4939665;29;19933;-73
2022/07/03 02:08:47;;;;;;;;;;;14.90;99.90;;;;;;4941258;29;19923;-73
2022/07/03 02:11:16;;;;;;;;;;;14.80;99.90;;;;;;4948777;29;19923;-72
2022/07/03 02:14:06;;;;;;;;;;;14.80;99.90;;;;;;4947289;29;19932;-73
2022/07/03 02:16:53;;;;;;;;;;;14.70;99.90;;;;;;4945365;29;19929;-73
2022/07/03 02:19:30;;;;;;;;;;;14.70;99.90;;;;;;4933959;29;19923;-73
2022/07/03 02:22:05;;;;;;;;;;;14.80;99.90;;;;;;4961692;28;19928;-73
2022/07/03 02:24:44;;;;;;;;;;;14.80;99.90;;;;;;4941615;28;19934;-73
2022/07/03 02:27:18;;;;;;;;;;;14.80;99.90;;;;;;4936214;29;20304;-73
2022/07/03 02:29:53;;;;;;;;;;;14.80;99.90;;;;;;4950582;28;19950;-73
2022/07/03 02:32:25;;;;;;;;;;;14.80;99.90;;;;;;4946725;28;20391;-73
2022/07/03 02:35:02;;;;;;;;;;;14.80;99.90;;;;;;4941755;28;19923;-73
2022/07/03 02:37:31;;;;;;;;;;;14.80;99.90;;;;;;4940734;29;19969;-73
2022/07/03 02:40:06;;;;;;;;;;;14.70;99.90;;;;;;4942022;29;19926;-73
2022/07/03 02:42:41;;;;;;;;;;;14.80;99.90;;;;;;4929517;29;19927;-73
2022/07/03 02:45:13;;;;;;;;;;;14.80;99.90;;;;;;4941112;29;19923;-73
2022/07/03 02:47:57;;;;;;;;;;;14.70;99.90;;;;;;4955252;28;19929;-72
2022/07/03 02:50:31;;;;;;;;;;;14.70;99.90;;;;;;4935930;29;20029;-73
2022/07/03 02:53:09;;;;;;;;;;;14.70;99.90;;;;;;4943956;29;19927;-74
2022/07/03 02:55:45;;;;;;;;;;;14.70;99.90;;;;;;4936651;28;19945;-72
2022/07/03 02:58:23;;;;;;;;;;;14.70;99.90;;;;;;4954981;28;19929;-73
2022/07/03 03:00:58;;;;;;;;;;;14.60;99.90;;;;;;4951377;29;19930;-73
2022/07/03 03:03:30;;;;;;;;;;;14.50;99.90;;;;;;4940995;29;19933;-73
2022/07/03 03:06:03;;;;;;;;;;;14.50;99.90;;;;;;4933624;29;19950;-73
2022/07/03 03:08:41;;;;;;;;;;;14.50;99.90;;;;;;4952268;28;19966;-73
2022/07/03 03:11:24;;;;;;;;;;;14.50;99.90;;;;;;4964324;28;20017;-73
2022/07/03 03:13:55;;;;;;;;;;;14.40;99.90;;;;;;4952982;28;19922;-73
2022/07/03 03:16:26;;;;;;;;;;;14.40;99.90;;;;;;4933032;28;19926;-73
2022/07/03 03:18:58;;;;;;;;;;;14.40;99.90;;;;;;4946015;29;19935;-73
2022/07/03 03:21:31;;;;;;;;;;;14.50;99.90;;;;;;4945822;28;19930;-73
2022/07/03 03:24:03;;;;;;;;;;;14.50;99.90;;;;;;4942851;29;19926;-73
2022/07/03 03:26:35;;;;;;;;;;;14.50;99.90;;;;;;4933735;29;20335;-72
2022/07/03 03:29:02;;;;;;;;;;;14.50;99.90;;;;;;4944539;29;19932;-72
2022/07/03 03:31:34;;;;;;;;;;;14.50;99.90;;;;;;4939012;29;20025;-72
2022/07/03 03:34:06;;;;;;;;;;;14.50;99.90;;;;;;4945680;28;20298;-73
2022/07/03 03:36:37;;;;;;;;;;;14.60;99.90;;;;;;4932611;28;20413;-73
2022/07/03 03:39:09;;;;;;;;;;;14.60;99.90;;;;;;4943084;29;19930;-73
2022/07/03 03:41:40;;;;;;;;;;;14.60;99.90;;;;;;4950877;29;19926;-73
2022/07/03 03:44:12;;;;;;;;;;;14.60;99.90;;;;;;4934971;28;20016;-73
2022/07/03 03:46:44;;;;;;;;;;;14.60;99.90;;;;;;4940726;29;19923;-73
2022/07/03 03:49:15;;;;;;;;;;;14.50;99.90;;;;;;4945031;29;19930;-73
2022/07/03 03:51:47;;;;;;;;;;;14.50;99.90;;;;;;4943897;28;19922;-73
2022/07/03 03:54:19;;;;;;;;;;;14.40;99.90;;;;;;4916506;29;20407;-73
2022/07/03 03:56:50;;;;;;;;;;;14.30;99.90;;;;;;4951677;28;20506;-73
2022/07/03 03:59:17;;;;;;;;;;;14.30;99.90;;;;;;4958053;28;19963;-73
2022/07/03 04:01:49;;;;;;;;;;;14.30;99.90;;;;;;4943640;28;20387;-72
2022/07/03 04:04:22;;;;;;;;;;;14.30;99.90;;;;;;4946729;28;19929;-73
2022/07/03 04:06:48;;;;;;;;;;;14.40;99.90;;;;;;4938720;29;20029;-73
2022/07/03 04:09:20;;;;;;;;;;;14.40;99.90;;;;;;4932515;29;19923;-73
2022/07/03 04:11:52;;;;;;;;;;;14.50;99.90;;;;;;4935928;29;20608;-73
2022/07/03 04:14:24;;;;;;;;;;;14.50;99.90;;;;;;4946499;28;19929;-73
2022/07/03 04:16:55;;;;;;;;;;;14.60;99.90;;;;;;4948843;28;19927;-73
2022/07/03 04:19:27;;;;;;;;;;;14.60;99.90;;;;;;4940655;29;19922;-73
2022/07/03 04:21:59;;;;;;;;;;;14.60;99.90;;;;;;4925783;29;19926;-73
2022/07/03 04:24:30;;;;;;;;;;;14.60;99.90;;;;;;4950121;28;20633;-73
2022/07/03 04:27:02;;;;;;;;;;;14.70;99.90;;;;;;4947130;28;19930;-73
2022/07/03 04:29:34;;;;;;;;;;;14.70;99.90;;;;;;4944144;28;20672;-73
2022/07/03 04:32:06;;;;;;;;;;;14.70;99.90;;;;;;4956209;28;19922;-73
2022/07/03 04:34:37;;;;;;;;;;;14.70;99.90;;;;;;4941672;28;19942;-73
2022/07/03 04:37:09;;;;;;;;;;;14.70;99.90;;;;;;4950572;29;19961;-73
2022/07/03 04:39:41;;;;;;;;;;;14.70;99.90;;;;;;4952457;28;20366;-73
2022/07/03 04:42:12;;;;;;;;;;;14.80;99.90;;;;;;4952634;29;19922;-73
2022/07/03 04:44:44;;;;;;;;;;;14.80;99.90;;;;;;4943617;28;19933;-73
2022/07/03 04:47:15;;;;;;;;;;;14.80;99.90;;;;;;4935717;29;19926;-73
2022/07/03 04:49:47;;;;;;;;;;;14.80;99.90;;;;;;4950303;29;19938;-73
2022/07/03 04:52:19;;;;;;;;;;;14.80;99.90;;;;;;4946270;29;20501;-73
2022/07/03 04:54:50;;;;;;;;;;;14.90;99.90;;;;;;4948588;28;19929;-73
2022/07/03 04:57:22;;;;;;;;;;;14.90;99.90;;;;;;4943206;29;19927;-73
2022/07/03 04:59:54;;;;;;;;;;;14.90;99.90;;;;;;4962236;28;19922;-73
2022/07/03 05:02:25;;;;;;;;;;;14.90;99.90;;;;;;4957125;28;19923;-73
2022/07/03 05:04:57;;;;;;;;;;;15.00;99.90;;;;;;4935523;29;20384;-73
2022/07/03 05:07:28;;;;;;;;;;;15.00;99.90;;;;;;4941920;29;20008;-73
2022/07/03 05:10:00;;;;;;;;;;;15.00;99.90;;;;;;4941756;29;19927;-73
2022/07/03 05:12:32;;;;;;;;;;;15.10;99.90;;;;;;4946364;29;19923;-73
2022/07/03 05:14:58;;;;;;;;;;;15.10;99.90;;;;;;4940237;29;19930;-73
2022/07/03 05:17:30;;;;;;;;;;;15.20;99.90;;;;;;4960795;28;19923;-73
2022/07/03 05:22:58;;;;;;;;;;;15.30;99.90;;;;;;4952742;29;19923;-73
2022/07/03 05:25:26;;;;;;;;;;;15.30;99.90;;;;;;4925041;29;20368;-73
2022/07/03 05:27:55;;;;;;;;;;;15.40;99.90;;;;;;4950505;29;19930;-73
2022/07/03 05:30:23;;;;;;;;;;;15.40;99.90;;;;;;4946513;29;19926;-74
2022/07/03 05:32:55;;;;;;;;;;;15.50;99.90;;;;;;4949536;28;19961;-73
2022/07/03 05:35:26;;;;;;;;;;;15.60;99.90;;;;;;4925519;29;19933;-72
2022/07/03 05:37:58;;;;;;;;;;;15.60;99.90;;;;;;4948652;29;19922;-72
2022/07/03 05:40:30;;;;;;;;;;;15.70;99.90;;;;;;4953149;28;20387;-73
2022/07/03 05:43:01;;;;;;;;;;;15.70;99.90;;;;;;4940108;28;19922;-73
2022/07/03 05:45:33;;;;;;;;;;;15.80;99.90;;;;;;4939821;28;20021;-73
2022/07/03 05:48:05;;;;;;;;;;;15.90;99.90;;;;;;4943186;29;19938;-73
2022/07/03 05:50:36;;;;;;;;;;;16.00;99.90;;;;;;4942365;29;19922;-72
2022/07/03 05:53:08;;;;;;;;;;;16.10;99.90;;;;;;4937759;28;20006;-73
2022/07/03 05:55:40;;;;;;;;;;;16.20;99.90;;;;;;4945301;28;20507;-73
2022/07/03 05:58:11;;;;;;;;;;;16.20;99.90;;;;;;4952386;28;20364;-73
2022/07/03 06:00:43;;;;;;;;;;;16.30;99.90;;;;;;4940797;29;19926;-73
2022/07/03 06:03:10;;;;;;;;;;;16.40;99.90;;;;;;4935927;29;19927;-73
2022/07/03 06:05:38;;;;;;;;;;;16.50;99.90;;;;;;4946022;28;19922;-73
2022/07/03 06:08:09;;;;;;;;;;;16.60;99.90;;;;;;4941737;29;19926;-73
2022/07/03 06:10:41;;;;;;;;;;;16.80;99.90;;;;;;4937370;29;19927;-74
2022/07/03 06:13:13;;;;;;;;;;;16.90;99.90;;;;;;4935140;28;19966;-73
2022/07/03 06:15:44;;;;;;;;;;;17.10;99.90;;;;;;4938533;28;20025;-73
2022/07/03 06:18:16;;;;;;;;;;;17.20;99.90;;;;;;4943772;28;19929;-73
2022/07/03 06:20:42;;;;;;;;;;;17.40;99.90;;;;;;4936722;29;19934;-73
2022/07/03 06:23:14;;;;;;;;;;;17.50;99.90;;;;;;4923904;29;19927;-73
2022/07/03 06:25:46;;;;;;;;;;;17.70;99.90;;;;;;4956061;28;19930;-73
2022/07/03 06:28:17;;;;;;;;;;;18.00;99.90;;;;;;4954784;28;20002;-73
2022/07/03 06:30:49;;;;;;;;;;;18.40;99.90;;;;;;4922406;29;19922;-73
2022/07/03 06:33:22;;;;;;;;;;;18.80;99.90;;;;;;4943989;29;19927;-73
2022/07/03 06:35:53;;;;;;;;;;;19.10;99.90;;;;;;4940192;28;19945;-73
2022/07/03 06:38:25;;;;;;;;;;;19.50;99.90;;;;;;4941245;28;19923;-73
2022/07/03 06:40:57;;;;;;;;;;;19.80;99.90;;;;;;4944131;29;19944;-73
2022/07/03 06:43:28;;;;;;;;;;;20.00;99.90;;;;;;4943660;29;19922;-73
2022/07/03 06:45:55;;;;;;;;;;;20.10;99.90;;;;;;4940323;28;19927;-73
2022/07/03 06:48:27;;;;;;;;;;;20.20;99.90;;;;;;4938200;29;19944;-73
2022/07/03 06:50:58;;;;;;;;;;;20.30;99.90;;;;;;4933185;28;19930;-73
2022/07/03 06:53:25;;;;;;;;;;;20.40;99.90;;;;;;4937019;29;20093;-73
2022/07/03 06:55:56;;;;;;;;;;;20.50;99.90;;;;;;4933927;28;19929;-73
2022/07/03 06:58:28;;;;;;;;;;;20.50;99.90;;;;;;4946805;28;20544;-73
2022/07/03 07:00:55;;;;;;;;;;;20.60;99.90;;;;;;4947344;28;19922;-73
2022/07/03 07:03:26;;;;;;;;;;;20.70;99.90;;;;;;4939265;29;19930;-73
2022/07/03 07:05:58;;;;;;;;;;;20.80;99.90;;;;;;4939525;29;19926;-73
2022/07/03 07:08:30;;;;;;;;;;;20.90;99.90;;;;;;4942542;29;19938;-73
2022/07/03 07:11:01;;;;;;;;;;;21.00;99.90;;;;;;4942826;29;19926;-73
2022/07/03 07:13:33;;;;;;;;;;;21.10;99.90;;;;;;4937141;29;19945;-73
2022/07/03 07:16:05;;;;;;;;;;;21.20;99.90;;;;;;4938182;29;19922;-73
2022/07/03 07:18:36;;;;;;;;;;;21.30;99.90;;;;;;4947786;28;19922;-73
2022/07/03 07:21:08;;;;;;;;;;;21.40;99.90;;;;;;4945805;29;20013;-73
2022/07/03 07:23:40;;;;;;;;;;;21.50;99.90;;;;;;4941571;29;20564;-73
2022/07/03 07:26:07;;;;;;;;;;;21.60;99.90;;;;;;4930406;29;19926;-73
2022/07/03 07:28:39;;;;;;;;;;;21.70;99.90;;;;;;4951097;28;19923;-73
2022/07/03 07:31:05;;;;;;;;;;;21.80;99.90;;;;;;4935254;29;19946;-72
2022/07/03 07:33:32;;;;;;;;;;;21.90;99.90;;;;;;4938835;29;19977;-73
2022/07/03 07:36:04;;;;;;;;;;;22.00;99.90;;;;;;4932359;28;19923;-73
2022/07/03 07:38:35;;;;;;;;;;;22.00;99.90;;;;;;4937037;29;19926;-73
2022/07/03 07:41:07;;;;;;;;;;;22.10;99.90;;;;;;4931259;29;19923;-73
2022/07/03 07:43:34;;;;;;;;;;;22.20;99.90;;;;;;4938088;29;19922;-73
2022/07/03 07:46:05;;;;;;;;;;;22.20;99.90;;;;;;4937424;28;19933;-73
2022/07/03 07:48:37;;;;;;;;;;;22.30;99.90;;;;;;4944189;28;19923;-73
2022/07/03 07:51:08;;;;;;;;;;;22.40;99.90;;;;;;4946731;29;20295;-73
2022/07/03 07:53:35;;;;;;;;;;;22.40;99.90;;;;;;4935807;29;19926;-73
2022/07/03 07:56:07;;;;;;;;;;;22.50;99.90;;;;;;4934340;29;19938;-73
2022/07/03 07:58:38;;;;;;;;;;;22.60;99.90;;;;;;4920634;29;19929;-73
2022/07/03 08:06:41;;;;;;;;;;;23.00;99.90;;;;;;4933489;29;19926;-73
2022/07/03 08:09:12;;;;;;;;;;;23.20;99.90;;;;;;4938322;29;19933;-73
2022/07/03 08:11:39;;;;;;;;;;;23.20;99.90;;;;;;4936900;29;19923;-73
2022/07/03 08:14:11;;;;;;;;;;;23.30;99.90;;;;;;4953944;28;20017;-73
2022/07/03 08:16:45;;;;;;;;;;;23.30;99.90;;;;;;4923212;29;19923;-73
2022/07/03 08:19:16;;;;;;;;;;;23.40;99.90;;;;;;4938204;29;19922;-73
2022/07/03 08:21:48;;;;;;;;;;;23.50;99.90;;;;;;4956471;28;20384;-73
2022/07/03 08:24:16;;;;;;;;;;;23.60;99.90;;;;;;4932284;29;19991;-73
2022/07/03 08:26:47;;;;;;;;;;;23.70;99.90;;;;;;4923458;29;19937;-73
2022/07/03 08:29:19;;;;;;;;;;;23.80;99.90;;;;;;4940535;29;19933;-73
2022/07/03 08:31:50;;;;;;;;;;;23.80;99.90;;;;;;4933885;29;20004;-73
2022/07/03 08:34:17;;;;;;;;;;;23.90;99.90;;;;;;4935321;28;20367;-73
2022/07/03 08:36:49;;;;;;;;;;;24.00;99.90;;;;;;4929345;29;19937;-73
2022/07/03 08:39:20;;;;;;;;;;;24.00;99.90;;;;;;4934300;29;19941;-74
2022/07/03 08:41:53;;;;;;;;;;;24.00;99.90;;;;;;4945155;28;19930;-73
2022/07/03 08:44:24;;;;;;;;;;;24.10;99.90;;;;;;4947411;28;19923;-73
2022/07/03 08:46:58;;;;;;;;;;;24.10;99.90;;;;;;4937202;28;19937;-73
2022/07/03 08:49:30;;;;;;;;;;;24.10;99.90;;;;;;4937100;29;20306;-73
2022/07/03 08:51:59;;;;;;;;;;;24.20;99.70;;;;;;4938954;29;20363;-73
2022/07/03 08:54:26;;;;;;;;;;;24.30;99.00;;;;;;4952591;28;19931;-73
2022/07/03 08:56:57;;;;;;;;;;;24.30;99.40;;;;;;4954703;28;19922;-73
2022/07/03 08:59:32;;;;;;;;;;;24.50;98.60;;;;;;4937524;28;19929;-73
2022/07/03 09:02:05;;;;;;;;;;;24.50;97.00;;;;;;4950273;28;19934;-73
2022/07/03 09:04:37;;;;;;;;;;;24.70;98.20;;;;;;4945050;28;20037;-73
2022/07/03 09:07:09;;;;;;;;;;;24.70;95.80;;;;;;4937316;28;20013;-73
2022/07/03 09:09:41;;;;;;;;;;;24.80;95.50;;;;;;4954857;28;20023;-73
2022/07/03 09:12:13;;;;;;;;;;;24.90;95.10;;;;;;4925337;29;20395;-73
2022/07/03 09:14:45;;;;;;;;;;;24.90;93.90;;;;;;4940174;28;19927;-73
2022/07/03 09:17:16;;;;;;;;;;;25.00;94.40;;;;;;4928608;29;19922;-73
2022/07/03 09:19:46;;;;;;;;;;;25.10;91.70;;;;;;4936338;28;20009;-73
2022/07/03 09:22:21;;;;;;;;;;;25.10;91.80;;;;;;4935257;29;20376;-72
2022/07/03 09:24:54;;;;;;;;;;;25.20;92.00;;;;;;4931773;29;19930;-73
2022/07/03 09:27:26;;;;;;;;;;;25.20;91.50;;;;;;4934066;29;19933;-73
2022/07/03 09:29:59;;;;;;;;;;;25.20;88.50;;;;;;4949061;28;19954;-73
2022/07/03 09:32:32;;;;;;;;;;;25.20;90.70;;;;;;4944259;28;19938;-73
2022/07/03 09:35:14;;;;;;;;;;;25.20;90.50;;;;;;4930273;29;19926;-73
2022/07/03 09:37:49;;;;;;;;;;;25.40;89.40;;;;;;4939507;29;19973;-73
2022/07/03 09:40:23;;;;;;;;;;;25.60;85.30;;;;;;4940526;29;19950;-73
2022/07/03 09:42:58;;;;;;;;;;;25.60;83.00;;;;;;4938796;29;19929;-73
2022/07/03 09:45:49;;;;;;;;;;;25.70;84.10;;;;;;4951549;28;19929;-73
2022/07/03 09:48:29;;;;;;;;;;;25.80;84.90;;;;;;4941970;29;20310;-73
2022/07/03 09:51:09;;;;;;;;;;;25.90;83.30;;;;;;4946304;29;19927;-73
2022/07/03 09:53:52;;;;;;;;;;;25.90;82.60;;;;;;4932227;29;19926;-73
2022/07/03 09:56:34;;;;;;;;;;;25.90;80.00;;;;;;4935397;29;20009;-73
2022/07/03 09:59:21;;;;;;;;;;;26.00;77.40;;;;;;4940437;29;19931;-72
2022/07/03 10:01:54;;;;;;;;;;;26.10;78.60;;;;;;4942074;29;19930;-72
2022/07/03 10:04:24;;;;;;;;;;;26.20;79.80;;;;;;4948172;28;19942;-72
2022/07/03 10:06:57;;;;;;;;;;;26.20;77.30;;;;;;4932304;28;19922;-73
2022/07/03 10:09:33;;;;;;;;;;;26.10;77.00;;;;;;4934115;29;20392;-72
2022/07/03 10:12:01;;;;;;;;;;;26.20;77.80;;;;;;4938801;29;19922;-72
2022/07/03 10:14:33;;;;;;;;;;;26.30;76.40;;;;;;4939300;28;20496;-73
2022/07/03 10:17:01;;;;;;;;;;;26.50;74.10;;;;;;4931246;29;20264;-72
2022/07/03 10:19:37;;;;;;;;;;;26.50;74.30;;;;;;4935100;29;20326;-75
2022/07/03 10:22:15;;;;;;;;;;;26.50;71.00;;;;;;4934703;29;19971;-72
2022/07/03 10:24:42;;;;;;;;;;;26.70;72.50;;;;;;4937133;29;20054;-72
2022/07/03 10:27:14;;;;;;;;;;;26.90;71.70;;;;;;4941508;29;20348;-72
2022/07/03 10:29:46;;;;;;;;;;;27.00;72.10;;;;;;4947838;29;19929;-73
2022/07/03 10:32:17;;;;;;;;;;;27.20;73.80;;;;;;4952751;28;19926;-72
2022/07/03 10:34:44;;;;;;;;;;;27.10;70.10;;;;;;4954576;28;19977;-72
2022/07/03 10:37:18;;;;;;;;;;;27.00;72.30;;;;;;4931477;28;19933;-72
2022/07/03 10:39:55;;;;;;;;;;;27.10;70.00;;;;;;4938168;29;19923;-72
2022/07/03 10:45:21;;;;;;;;;;;27.10;72.00;;;;;;4961388;28;19926;-72
2022/07/03 10:47:52;;;;;;;;;;;27.20;67.70;;;;;;4943386;29;19931;-72
2022/07/03 10:50:24;;;;;;;;;;;27.30;68.40;;;;;;4939489;28;19923;-72
2022/07/03 10:53:15;;;;;;;;;;;27.30;68.10;;;;;;4936469;29;19998;-72
2022/07/03 10:56:03;;;;;;;;;;;27.30;64.20;;;;;;4936083;29;20009;-72
2022/07/03 10:58:30;;;;;;;;;;;27.40;62.40;;;;;;4956120;28;19933;-74
2022/07/03 11:01:01;;;;;;;;;;;27.50;60.70;;;;;;4943423;29;19937;-73
2022/07/03 11:03:53;;;;;;;;;;;27.60;59.40;;;;;;4945882;28;19922;-73
2022/07/03 11:06:40;;;;;;;;;;;27.70;62.50;;;;;;4939880;28;19962;-73
2022/07/03 11:09:12;;;;;;;;;;;27.90;63.10;;;;;;4939110;29;19976;-73
2022/07/03 11:11:54;;;;;;;;;;;27.80;62.20;;;;;;4952761;28;19932;-73
2022/07/03 11:14:27;;;;;;;;;;;28.10;62.20;;;;;;4924024;29;19923;-74
2022/07/03 11:17:18;;;;;;;;;;;28.20;63.70;;;;;;4933020;29;19923;-73
2022/07/03 11:22:40;;;;;;;;;;;28.20;59.80;;;;;;4937859;29;19922;-73
2022/07/03 11:25:13;;;;;;;;;;;28.40;59.00;;;;;;4937633;28;19927;-73
2022/07/03 11:27:47;;;;;;;;;;;28.50;60.20;;;;;;4943609;29;20331;-73
2022/07/03 11:30:21;;;;;;;;;;;28.50;57.50;;;;;;4943139;28;19923;-73
2022/07/03 11:32:57;;;;;;;;;;;28.40;57.90;;;;;;4934018;29;20022;-73
2022/07/03 11:35:48;;;;;;;;;;;28.30;57.40;;;;;;4940706;28;19926;-73
2022/07/03 11:38:15;;;;;;;;;;;28.30;58.60;;;;;;4939300;29;19926;-73
2022/07/03 11:40:47;;;;;;;;;;;28.30;57.00;;;;;;4943718;29;20295;-73
2022/07/03 11:43:19;;;;;;;;;;;28.30;57.80;;;;;;4943320;28;19934;-73
2022/07/03 11:45:51;;;;;;;;;;;28.40;57.40;;;;;;4936867;29;19926;-73
2022/07/03 11:48:19;;;;;;;;;;;28.50;59.10;;;;;;4939682;29;20394;-73
2022/07/03 11:50:51;;;;;;;;;;;28.70;58.70;;;;;;4947696;29;20025;-73
2022/07/03 11:53:27;;;;;;;;;;;28.80;57.90;;;;;;4944880;29;19973;-73
2022/07/03 11:55:57;;;;;;;;;;;28.80;58.60;;;;;;4939064;29;20295;-73
2022/07/03 11:58:42;;;;;;;;;;;28.80;56.80;;;;;;4941355;29;19923;-73
2022/07/03 12:01:26;;;;;;;;;;;28.70;57.60;;;;;;4935921;29;19926;-73
2022/07/03 12:04:13;;;;;;;;;;;28.60;58.00;;;;;;4934937;29;19929;-73
2022/07/03 12:06:44;;;;;;;;;;;28.70;59.40;;;;;;4927415;29;19966;-73
2022/07/03 12:09:24;;;;;;;;;;;28.80;59.50;;;;;;4946825;29;20025;-73
2022/07/03 12:11:56;;;;;;;;;;;28.90;57.70;;;;;;4936665;29;20345;-73
2022/07/03 12:14:44;;;;;;;;;;;29.10;58.00;;;;;;4947436;29;19926;-73
2022/07/03 12:17:12;;;;;;;;;;;29.20;57.50;;;;;;4943746;29;20310;-73
2022/07/03 12:19:53;;;;;;;;;;;29.30;57.60;;;;;;4943617;29;20298;-73
2022/07/03 12:22:26;;;;;;;;;;;29.40;57.00;;;;;;4951380;28;20307;-73
2022/07/03 12:25:05;;;;;;;;;;;29.50;56.90;;;;;;4939291;28;20396;-73
2022/07/03 12:27:33;;;;;;;;;;;29.50;57.10;;;;;;4941113;28;19934;-73
2022/07/03 12:30:05;;;;;;;;;;;29.50;57.40;;;;;;4941420;29;20391;-73
2022/07/03 12:32:32;;;;;;;;;;;29.50;56.10;;;;;;4943741;28;19941;-73
2022/07/03 12:35:04;;;;;;;;;;;29.50;56.50;;;;;;4937530;28;19929;-73
2022/07/03 12:37:37;;;;;;;;;;;29.60;57.90;;;;;;4940732;28;19934;-73
2022/07/03 12:40:10;;;;;;;;;;;29.80;56.80;;;;;;4941787;28;19926;-73
2022/07/03 12:42:45;;;;;;;;;;;29.90;56.90;;;;;;4936906;28;19923;-73
2022/07/03 12:45:18;;;;;;;;;;;30.00;56.60;;;;;;4936602;29;19962;-73
2022/07/03 12:47:57;;;;;;;;;;;30.10;56.00;;;;;;4941082;29;20307;-74
2022/07/03 12:50:23;;;;;;;;;;;29.90;55.60;;;;;;4952631;29;19926;-74
2022/07/03 12:52:57;;;;;;;;;;;29.80;55.20;;;;;;4954392;29;20566;-73
2022/07/03 12:55:29;;;;;;;;;;;29.90;55.60;;;;;;4928032;29;19933;-73
2022/07/03 13:00:57;;;;;;;;;;;30.10;55.10;;;;;;4954268;28;19927;-73
2022/07/03 13:03:29;;;;;;;;;;;30.30;55.10;;;;;;4928704;29;19922;-73
2022/07/03 13:06:00;;;;;;;;;;;30.30;54.30;;;;;;4937072;29;20005;-73
2022/07/03 13:08:32;;;;;;;;;;;30.50;55.10;;;;;;4946324;29;20423;-73
2022/07/03 13:11:04;;;;;;;;;;;30.60;55.80;;;;;;4946686;28;19923;-73
2022/07/03 13:13:48;;;;;;;;;;;30.60;55.10;;;;;;4954025;29;19997;-73
2022/07/03 13:16:26;;;;;;;;;;;30.40;55.80;;;;;;4942706;29;19922;-73
2022/07/03 13:19:01;;;;;;;;;;;30.50;56.30;;;;;;4940525;29;19934;-73
2022/07/03 13:21:33;;;;;;;;;;;30.80;57.30;;;;;;4954021;28;19948;-73
2022/07/03 13:24:05;;;;;;;;;;;30.80;54.90;;;;;;4942323;29;19944;-73
2022/07/03 13:26:37;;;;;;;;;;;30.70;55.00;;;;;;4939274;29;19922;-73
2022/07/03 13:29:09;;;;;;;;;;;30.80;56.10;;;;;;4945300;29;19968;-73
2022/07/03 13:31:35;;;;;;;;;;;30.80;54.80;;;;;;4947373;29;19929;-73
2022/07/03 13:34:07;;;;;;;;;;;30.90;54.60;;;;;;4943474;28;19929;-73
2022/07/03 13:36:39;;;;;;;;;;;31.10;54.40;;;;;;4922587;29;20018;-73
2022/07/03 13:39:10;;;;;;;;;;;31.20;55.30;;;;;;4940399;29;19933;-73
2022/07/03 13:41:42;;;;;;;;;;;31.40;56.10;;;;;;4949971;29;20033;-72
2022/07/03 13:44:14;;;;;;;;;;;31.60;54.50;;;;;;4945129;29;19922;-73
2022/07/03 13:46:45;;;;;;;;;;;31.70;54.50;;;;;;4933057;29;19930;-73
2022/07/03 13:49:17;;;;;;;;;;;31.60;54.00;;;;;;4942574;29;19969;-72
2022/07/03 13:51:49;;;;;;;;;;;31.60;54.60;;;;;;4954910;28;19929;-73
2022/07/03 13:54:21;;;;;;;;;;;31.80;55.30;;;;;;4940761;28;19964;-73
2022/07/03 13:56:52;;;;;;;;;;;31.50;55.70;;;;;;4938105;29;19927;-73
2022/07/03 13:59:24;;;;;;;;;;;31.60;54.40;;;;;;4951102;29;20016;-73
2022/07/03 14:01:56;;;;;;;;;;;31.60;54.40;;;;;;4948971;29;20291;-73
2022/07/03 14:04:27;;;;;;;;;;;31.50;54.40;;;;;;4941422;29;20292;-73
2022/07/03 14:06:59;;;;;;;;;;;31.70;55.20;;;;;;4959432;28;19939;-73
2022/07/03 14:09:31;;;;;;;;;;;31.80;54.30;;;;;;4925483;29;19977;-73
2022/07/03 14:12:03;;;;;;;;;;;31.70;54.40;;;;;;4946982;28;19937;-73
2022/07/03 14:14:29;;;;;;;;;;;32.00;54.60;;;;;;4940772;29;19923;-73
2022/07/03 14:17:01;;;;;;;;;;;32.00;53.70;;;;;;4942913;29;20559;-73
2022/07/03 14:19:32;;;;;;;;;;;32.00;53.10;;;;;;4939198;28;20395;-73
2022/07/03 14:22:04;;;;;;;;;;;32.30;52.60;;;;;;4939402;29;19927;-73
2022/07/03 14:24:36;;;;;;;;;;;32.20;54.00;;;;;;4937824;29;19929;-72
2022/07/03 14:32:48;;;;;;;;;;;32.20;52.60;;;;;;4945880;28;20013;-72
2022/07/03 14:35:20;;;;;;;;;;;32.50;53.80;;;;;;4935850;29;19945;-73
2022/07/03 14:37:52;;;;;;;;;;;32.60;52.00;;;;;;4940578;29;19923;-73
2022/07/03 14:40:23;;;;;;;;;;;32.70;52.50;;;;;;4924284;29;19930;-72
2022/07/03 14:42:56;;;;;;;;;;;32.90;52.40;;;;;;4953324;28;19922;-73
2022/07/03 14:45:28;;;;;;;;;;;33.10;52.00;;;;;;4938638;28;19930;-72
2022/07/03 14:48:00;;;;;;;;;;;33.10;51.90;;;;;;4957497;28;20665;-72
2022/07/03 14:50:31;;;;;;;;;;;33.20;52.00;;;;;;4951020;29;19933;-73
2022/07/03 14:53:06;;;;;;;;;;;33.20;52.50;;;;;;4943505;28;19983;-72
2022/07/03 14:55:41;;;;;;;;;;;33.20;51.40;;;;;;4940934;29;19961;-73
2022/07/03 14:58:18;;;;;;;;;;;33.10;52.60;;;;;;4956958;28;19922;-72
2022/07/03 15:00:50;;;;;;;;;;;33.40;51.60;;;;;;4941232;28;19930;-72
2022/07/03 15:03:19;;;;;;;;;;;33.40;50.50;;;;;;4933947;28;19922;-72
2022/07/03 15:05:51;;;;;;;;;;;33.20;49.60;;;;;;4936567;29;19922;-72
2022/07/03 15:08:25;;;;;;;;;;;33.40;49.80;;;;;;4946087;28;19926;-73
2022/07/03 15:11:02;;;;;;;;;;;33.50;50.90;;;;;;4942430;29;19942;-72
2022/07/03 15:13:34;;;;;;;;;;;33.50;51.00;;;;;;4948003;28;19976;-73